Accueil
METAR-TAF:

METAR-TAF

Aéroports :

Matagami, Québec, Canada

latitude: 49-46N, longitude: 077-49W, altitude: 281 m

Observation

Le bulletin a été fait il y a 9 minutes, à 20:08 UTC
Vent 3 kt de nord/nord-ouest, variant entre ouest/nord-ouest et nord/nord-est
Température -16°C
Humidité 84%
Pression 1012 hPa
Visibilité: 4.0 km
Nuages fragmentés à une hauteur de 3100 ft
Ciel couvert à une hauteur de 4200 ft
neige faible

METAR: CYNM 192008Z AUTO 34003KT 300V020 2 1/2SM -SN BKN031 OVC042 M16/M18 A2987 RMK VIS VRB 1 1/2-3 SLP148

Heure: 15:17 (20:17 UTC)


TAF: absent

Observations et prévisions météorologiques de plus de 4000 aéroports (messages METAR et TAF).

Les stations disponibles sont représentées par des disques jaunes et rouges sur la carte.

Passer la souris dessus pour voir le nom de la station.

Cliquer dessus pour voir les observations et prévisions météorologiques.

Pour changer de carte: cliquez sur les boutons verts avec une croix noire pour zoomer, sur le bouton vert avec un tiret pour effectuer un zoom arrière, ou sur les flèches vertes pour les cartes adjacentes.


METAR-TAF: